San Gregorio, California
Current Conditions -  °F | °C
As of 5:15 PM on Saturday 20 Dec 2014 (Local Time) from KHAF Reporting Station
Haze Haze  
Wind Chill: 59°   Ceiling: 4000
Heat Index: 59°   Visibility: 5mi
Dew Point: 57°   Wind: 6mph
Humidity: 94%   Direction: 180°S
Pressure: 30.23"   Gusts: NA
Location:  37.33°N, 122.39°W
Report Text: KHAF 210115Z AUTO 18005KT 5SM BR OVC040 15/14 A3023 RMK AO2
Loading
Personal Weather Stations






























Interactive Weather Map New forecast layout! Learn more

10-Day Weather Forecast

Advertisements
Track Severe Weather on mobile